sensor_id;sensor_type;location;lat;lon;timestamp;pressure;altitude;pressure_sealevel;temperature;humidity
11987;BME280;6053;51.382;6.768;2023-08-21T00:01:32;76533.66;;;-146.77;86.86
11987;BME280;6053;51.382;6.768;2023-08-21T00:04:02;76500.03;;;-146.77;85.92
11987;BME280;6053;51.382;6.768;2023-08-21T00:06:32;76483.22;;;-146.77;84.36
11987;BME280;6053;51.382;6.768;2023-08-21T00:09:02;76489.53;;;-146.77;84.61
11987;BME280;6053;51.382;6.768;2023-08-21T00:11:34;76479.00;;;-146.77;83.91
11987;BME280;6053;51.382;6.768;2023-08-21T00:14:04;76468.50;;;-146.77;83.35
11987;BME280;6053;51.382;6.768;2023-08-21T00:16:34;76458.00;;;-146.77;82.88
11987;BME280;6053;51.382;6.768;2023-08-21T00:19:03;76453.78;;;-146.77;82.60
11987;BME280;6053;51.382;6.768;2023-08-21T00:21:33;76455.91;;;-146.77;82.82
11987;BME280;6053;51.382;6.768;2023-08-21T00:24:04;76458.00;;;-146.77;82.92
11987;BME280;6053;51.382;6.768;2023-08-21T00:26:36;76489.53;;;-146.77;84.68
11987;BME280;6053;51.382;6.768;2023-08-21T00:29:05;76508.44;;;-146.77;85.82
11987;BME280;6053;51.382;6.768;2023-08-21T00:31:33;76483.22;;;-146.77;84.61
11987;BME280;6053;51.382;6.768;2023-08-21T00:34:02;76476.91;;;-146.77;83.57
11987;BME280;6053;51.382;6.768;2023-08-21T00:36:32;76479.00;;;-146.77;84.09
11987;BME280;6053;51.382;6.768;2023-08-21T00:39:01;76474.81;;;-146.77;83.79
11987;BME280;6053;51.382;6.768;2023-08-21T00:41:30;76560.97;;;-146.77;86.01
11987;BME280;6053;51.382;6.768;2023-08-21T00:44:03;76512.63;;;-146.77;85.46
11987;BME280;6053;51.382;6.768;2023-08-21T00:46:33;76495.81;;;-146.77;85.29
11987;BME280;6053;51.382;6.768;2023-08-21T00:49:04;76497.91;;;-146.77;85.60
11987;BME280;6053;51.382;6.768;2023-08-21T00:51:34;76487.41;;;-146.77;84.19
11987;BME280;6053;51.382;6.768;2023-08-21T00:54:03;76500.03;;;-146.77;84.80
11987;BME280;6053;51.382;6.768;2023-08-21T00:56:35;76495.81;;;-146.77;85.12
11987;BME280;6053;51.382;6.768;2023-08-21T00:59:06;76512.63;;;-146.77;86.69
11987;BME280;6053;51.382;6.768;2023-08-21T01:01:36;76510.53;;;-146.77;85.35
11987;BME280;6053;51.382;6.768;2023-08-21T01:04:06;76504.22;;;-146.77;84.82
11987;BME280;6053;51.382;6.768;2023-08-21T01:06:38;76497.91;;;-146.77;85.32
11987;BME280;6053;51.382;6.768;2023-08-21T01:09:11;76500.03;;;-146.77;85.48
11987;BME280;6053;51.382;6.768;2023-08-21T01:11:48;76525.25;;;-146.77;85.65
11987;BME280;6053;51.382;6.768;2023-08-21T01:14:27;76514.72;;;-146.77;85.84
11987;BME280;6053;51.382;6.768;2023-08-21T01:17:00;76514.72;;;-146.77;85.75
11987;BME280;6053;51.382;6.768;2023-08-21T01:19:37;76516.84;;;-146.77;85.08
11987;BME280;6053;51.382;6.768;2023-08-21T01:22:07;76521.03;;;-146.77;85.02
11987;BME280;6053;51.382;6.768;2023-08-21T01:24:38;76533.66;;;-146.77;86.11
11987;BME280;6053;51.382;6.768;2023-08-21T01:27:07;76544.16;;;-146.77;86.30
11987;BME280;6053;51.382;6.768;2023-08-21T01:29:36;76550.47;;;-146.77;86.79
11987;BME280;6053;51.382;6.768;2023-08-21T01:32:08;76548.34;;;-146.77;86.34
11987;BME280;6053;51.382;6.768;2023-08-21T01:34:38;76550.47;;;-146.77;86.56
11987;BME280;6053;51.382;6.768;2023-08-21T01:37:09;76552.56;;;-146.77;87.18
11987;BME280;6053;51.382;6.768;2023-08-21T01:39:40;76554.66;;;-146.77;87.09
11987;BME280;6053;51.382;6.768;2023-08-21T01:42:09;76558.88;;;-146.77;87.32
11987;BME280;6053;51.382;6.768;2023-08-21T01:44:40;76560.97;;;-146.77;87.60
11987;BME280;6053;51.382;6.768;2023-08-21T01:47:09;76558.88;;;-146.77;86.28
11987;BME280;6053;51.382;6.768;2023-08-21T01:49:39;76556.75;;;-146.77;86.52
11987;BME280;6053;51.382;6.768;2023-08-21T01:52:08;76554.66;;;-146.77;87.12
11987;BME280;6053;51.382;6.768;2023-08-21T01:54:41;76563.06;;;-146.77;87.71
11987;BME280;6053;51.382;6.768;2023-08-21T01:57:17;76563.06;;;-146.77;88.22
11987;BME280;6053;51.382;6.768;2023-08-21T01:59:46;76567.25;;;-146.77;88.53
11987;BME280;6053;51.382;6.768;2023-08-21T02:02:17;76571.47;;;-146.77;89.25
11987;BME280;6053;51.382;6.768;2023-08-21T02:04:46;76579.88;;;-146.77;89.40
11987;BME280;6053;51.382;6.768;2023-08-21T02:07:17;76577.78;;;-146.77;90.02
11987;BME280;6053;51.382;6.768;2023-08-21T02:09:48;76579.88;;;-146.77;89.72
11987;BME280;6053;51.382;6.768;2023-08-21T02:12:18;76588.28;;;-146.77;89.98
11987;BME280;6053;51.382;6.768;2023-08-21T02:14:47;76586.19;;;-146.77;90.54
11987;BME280;6053;51.382;6.768;2023-08-21T02:17:16;76592.47;;;-146.77;90.33
11987;BME280;6053;51.382;6.768;2023-08-21T02:19:45;76592.47;;;-146.77;90.70
11987;BME280;6053;51.382;6.768;2023-08-21T02:22:14;76596.69;;;-146.77;91.50
11987;BME280;6053;51.382;6.768;2023-08-21T02:24:44;76605.09;;;-146.77;91.55
11987;BME280;6053;51.382;6.768;2023-08-21T02:27:15;76598.78;;;-146.77;91.52
11987;BME280;6053;51.382;6.768;2023-08-21T02:29:44;76609.28;;;-146.77;91.77
11987;BME280;6053;51.382;6.768;2023-08-21T02:32:13;76611.41;;;-146.77;92.12
11987;BME280;6053;51.382;6.768;2023-08-21T02:34:43;76619.81;;;-146.77;91.95
11987;BME280;6053;51.382;6.768;2023-08-21T02:37:12;76621.91;;;-146.77;92.67
11987;BME280;6053;51.382;6.768;2023-08-21T02:39:41;76624.00;;;-146.77;93.21
11987;BME280;6053;51.382;6.768;2023-08-21T02:42:11;76628.22;;;-146.77;93.35
11987;BME280;6053;51.382;6.768;2023-08-21T02:44:42;76634.50;;;-146.77;93.61
11987;BME280;6053;51.382;6.768;2023-08-21T02:47:11;76634.50;;;-146.77;93.99
11987;BME280;6053;51.382;6.768;2023-08-21T02:49:42;76640.81;;;-146.77;94.49
11987;BME280;6053;51.382;6.768;2023-08-21T02:52:14;76647.13;;;-146.77;94.18
11987;BME280;6053;51.382;6.768;2023-08-21T02:54:44;76649.22;;;-146.77;94.74
11987;BME280;6053;51.382;6.768;2023-08-21T02:57:13;76645.00;;;-146.77;95.45
11987;BME280;6053;51.382;6.768;2023-08-21T02:59:43;76647.13;;;-146.77;95.93
11987;BME280;6053;51.382;6.768;2023-08-21T03:02:12;76647.13;;;-146.77;96.29
11987;BME280;6053;51.382;6.768;2023-08-21T03:04:41;76649.22;;;-146.77;96.21
11987;BME280;6053;51.382;6.768;2023-08-21T03:07:10;76655.53;;;-146.77;96.82
11987;BME280;6053;51.382;6.768;2023-08-21T03:09:40;76657.63;;;-146.77;97.29
11987;BME280;6053;51.382;6.768;2023-08-21T03:12:09;76659.72;;;-146.77;97.90
11987;BME280;6053;51.382;6.768;2023-08-21T03:14:42;76661.81;;;-146.77;98.23
11987;BME280;6053;51.382;6.768;2023-08-21T03:17:11;76661.81;;;-146.77;99.05
11987;BME280;6053;51.382;6.768;2023-08-21T03:19:41;76663.94;;;-146.77;98.69
11987;BME280;6053;51.382;6.768;2023-08-21T03:22:11;76668.13;;;-146.77;98.72
11987;BME280;6053;51.382;6.768;2023-08-21T03:24:40;76666.03;;;-146.77;99.21
11987;BME280;6053;51.382;6.768;2023-08-21T03:27:09;76672.34;;;-146.77;99.38
11987;BME280;6053;51.382;6.768;2023-08-21T03:29:38;76670.22;;;-146.77;100.00
11987;BME280;6053;51.382;6.768;2023-08-21T03:32:09;76674.44;;;-146.77;100.00
11987;BME280;6053;51.382;6.768;2023-08-21T03:34:38;76672.34;;;-146.77;100.00
11987;BME280;6053;51.382;6.768;2023-08-21T03:37:08;76680.75;;;-146.77;100.00
11987;BME280;6053;51.382;6.768;2023-08-21T03:39:39;76682.84;;;-146.77;100.00
11987;BME280;6053;51.382;6.768;2023-08-21T03:42:08;76680.75;;;-146.77;100.00
11987;BME280;6053;51.382;6.768;2023-08-21T03:44:39;76682.84;;;-146.77;100.00
11987;BME280;6053;51.382;6.768;2023-08-21T03:47:10;76687.03;;;-146.77;100.00
11987;BME280;6053;51.382;6.768;2023-08-21T03:49:41;76693.34;;;-146.77;100.00
11987;BME280;6053;51.382;6.768;2023-08-21T03:52:11;76687.03;;;-146.77;100.00
11987;BME280;6053;51.382;6.768;2023-08-21T03:54:40;76684.94;;;-146.77;100.00
11987;BME280;6053;51.382;6.768;2023-08-21T03:57:10;76689.16;;;-146.77;100.00
11987;BME280;6053;51.382;6.768;2023-08-21T03:59:39;76693.34;;;-146.77;100.00
11987;BME280;6053;51.382;6.768;2023-08-21T04:02:10;76699.66;;;-146.77;100.00
11987;BME280;6053;51.382;6.768;2023-08-21T04:04:39;76699.66;;;-146.77;100.00
11987;BME280;6053;51.382;6.768;2023-08-21T04:07:08;76703.84;;;-146.77;100.00
11987;BME280;6053;51.382;6.768;2023-08-21T04:09:37;76703.84;;;-146.77;100.00
11987;BME280;6053;51.382;6.768;2023-08-21T04:12:07;76699.66;;;-146.77;100.00
11987;BME280;6053;51.382;6.768;2023-08-21T04:14:36;76703.84;;;-146.77;100.00
11987;BME280;6053;51.382;6.768;2023-08-21T04:17:09;76705.97;;;-146.77;100.00
11987;BME280;6053;51.382;6.768;2023-08-21T04:19:40;76710.16;;;-146.77;100.00
11987;BME280;6053;51.382;6.768;2023-08-21T04:22:11;76712.25;;;-146.77;100.00
11987;BME280;6053;51.382;6.768;2023-08-21T04:24:42;76710.16;;;-146.77;100.00
11987;BME280;6053;51.382;6.768;2023-08-21T04:27:11;76714.38;;;-146.77;100.00
11987;BME280;6053;51.382;6.768;2023-08-21T04:29:40;76705.97;;;-146.77;100.00
11987;BME280;6053;51.382;6.768;2023-08-21T04:32:11;76712.25;;;-146.77;100.00
11987;BME280;6053;51.382;6.768;2023-08-21T04:34:41;76712.25;;;-146.77;100.00
11987;BME280;6053;51.382;6.768;2023-08-21T04:37:12;76710.16;;;-146.77;100.00
11987;BME280;6053;51.382;6.768;2023-08-21T04:39:41;76705.97;;;-146.77;100.00
11987;BME280;6053;51.382;6.768;2023-08-21T04:42:10;76703.84;;;-146.77;100.00
11987;BME280;6053;51.382;6.768;2023-08-21T04:44:40;76703.84;;;-146.77;100.00
11987;BME280;6053;51.382;6.768;2023-08-21T04:47:25;76703.84;;;-146.77;100.00
11987;BME280;6053;51.382;6.768;2023-08-21T04:49:56;76701.75;;;-146.77;100.00
11987;BME280;6053;51.382;6.768;2023-08-21T04:52:26;76701.75;;;-146.77;100.00
11987;BME280;6053;51.382;6.768;2023-08-21T04:54:56;76703.84;;;-146.77;100.00
11987;BME280;6053;51.382;6.768;2023-08-21T04:57:25;76703.84;;;-146.77;100.00
11987;BME280;6053;51.382;6.768;2023-08-21T04:59:54;76712.25;;;-146.77;100.00
11987;BME280;6053;51.382;6.768;2023-08-21T05:02:24;76705.97;;;-146.77;100.00
11987;BME280;6053;51.382;6.768;2023-08-21T05:04:53;76689.16;;;-146.77;100.00
11987;BME280;6053;51.382;6.768;2023-08-21T05:07:23;76676.53;;;-146.77;100.00
11987;BME280;6053;51.382;6.768;2023-08-21T05:10:03;76668.13;;;-146.77;100.00
11987;BME280;6053;51.382;6.768;2023-08-21T05:12:32;76663.94;;;-146.77;100.00
11987;BME280;6053;51.382;6.768;2023-08-21T05:15:04;76642.91;;;-146.77;100.00
11987;BME280;6053;51.382;6.768;2023-08-21T05:17:35;76647.13;;;-146.77;99.50
11987;BME280;6053;51.382;6.768;2023-08-21T05:20:05;76657.63;;;-146.77;100.00
11987;BME280;6053;51.382;6.768;2023-08-21T05:22:34;76645.00;;;-146.77;99.28
11987;BME280;6053;51.382;6.768;2023-08-21T05:25:05;76617.69;;;-146.77;96.85
11987;BME280;6053;51.382;6.768;2023-08-21T05:27:36;76563.06;;;-146.77;93.95
11987;BME280;6053;51.382;6.768;2023-08-21T05:30:07;76554.66;;;-146.77;92.96
11987;BME280;6053;51.382;6.768;2023-08-21T05:32:39;76535.75;;;-146.77;91.93
11987;BME280;6053;51.382;6.768;2023-08-21T05:35:12;76518.94;;;-146.77;89.67
11987;BME280;6053;51.382;6.768;2023-08-21T05:37:41;76542.06;;;-146.77;88.54
11987;BME280;6053;51.382;6.768;2023-08-21T05:40:11;76567.25;;;-146.77;90.91
11987;BME280;6053;51.382;6.768;2023-08-21T05:42:42;76569.38;;;-146.77;91.44
11987;BME280;6053;51.382;6.768;2023-08-21T05:45:12;76537.84;;;-146.77;88.26
11987;BME280;6053;51.382;6.768;2023-08-21T05:47:43;76579.88;;;-146.77;90.46
11987;BME280;6053;51.382;6.768;2023-08-21T05:50:11;76493.72;;;-146.77;86.01
11987;BME280;6053;51.382;6.768;2023-08-21T05:52:40;76437.00;;;-146.77;83.08
11987;BME280;6053;51.382;6.768;2023-08-21T05:55:10;76392.84;;;-146.77;76.80
11987;BME280;6053;51.382;6.768;2023-08-21T05:57:39;76386.56;;;-146.77;75.09
11987;BME280;6053;51.382;6.768;2023-08-21T06:00:09;76415.97;;;-146.77;76.52
11987;BME280;6053;51.382;6.768;2023-08-21T06:02:39;76458.00;;;-146.77;77.79
11987;BME280;6053;51.382;6.768;2023-08-21T06:05:11;76399.16;;;-146.77;74.11
11987;BME280;6053;51.382;6.768;2023-08-21T06:07:42;76329.81;;;-146.77;70.29
11987;BME280;6053;51.382;6.768;2023-08-21T06:10:12;76306.72;;;-146.77;68.86
11987;BME280;6053;51.382;6.768;2023-08-21T06:12:44;76268.88;;;-146.77;67.76
11987;BME280;6053;51.382;6.768;2023-08-21T06:15:14;76262.59;;;-146.77;66.44
11987;BME280;6053;51.382;6.768;2023-08-21T06:17:44;76207.94;;;-146.77;62.81
11987;BME280;6053;51.382;6.768;2023-08-21T06:20:15;76136.50;;;-146.77;60.90
11987;BME280;6053;51.382;6.768;2023-08-21T06:22:47;76100.78;;;-146.77;58.03
11987;BME280;6053;51.382;6.768;2023-08-21T06:25:16;76163.81;;;-146.77;60.55
11987;BME280;6053;51.382;6.768;2023-08-21T06:27:47;76199.53;;;-146.77;62.63
11987;BME280;6053;51.382;6.768;2023-08-21T06:30:25;76289.91;;;-146.77;66.45
11987;BME280;6053;51.382;6.768;2023-08-21T06:32:55;76317.22;;;-146.77;69.19
11987;BME280;6053;51.382;6.768;2023-08-21T06:35:26;76258.38;;;-146.77;66.26
11987;BME280;6053;51.382;6.768;2023-08-21T06:37:55;76287.81;;;-146.77;65.84
11987;BME280;6053;51.382;6.768;2023-08-21T06:40:24;76262.59;;;-146.77;67.61
11987;BME280;6053;51.382;6.768;2023-08-21T06:42:53;76294.09;;;-146.77;63.55
11987;BME280;6053;51.382;6.768;2023-08-21T06:45:22;76189.03;;;-146.77;63.05
11987;BME280;6053;51.382;6.768;2023-08-21T06:47:51;76260.47;;;-146.77;63.72
11987;BME280;6053;51.382;6.768;2023-08-21T06:50:21;76277.28;;;-146.77;64.75
11987;BME280;6053;51.382;6.768;2023-08-21T06:52:53;76235.28;;;-146.77;64.39
11987;BME280;6053;51.382;6.768;2023-08-21T06:55:22;76184.84;;;-146.77;61.03
11987;BME280;6053;51.382;6.768;2023-08-21T06:57:51;76201.66;;;-146.77;59.74
11987;BME280;6053;51.382;6.768;2023-08-21T07:00:22;76273.09;;;-146.77;59.97
11987;BME280;6053;51.382;6.768;2023-08-21T07:02:52;76207.94;;;-146.77;60.06
11987;BME280;6053;51.382;6.768;2023-08-21T07:05:21;76132.31;;;-146.77;56.68
11987;BME280;6053;51.382;6.768;2023-08-21T07:07:52;76098.69;;;-146.77;55.27
11987;BME280;6053;51.382;6.768;2023-08-21T07:10:22;76002.03;;;-146.77;54.62
11987;BME280;6053;51.382;6.768;2023-08-21T07:12:53;76035.66;;;-146.77;55.54
11987;BME280;6053;51.382;6.768;2023-08-21T07:15:22;76058.78;;;-146.77;54.80
11987;BME280;6053;51.382;6.768;2023-08-21T07:17:53;76058.78;;;-146.77;56.92
11987;BME280;6053;51.382;6.768;2023-08-21T07:20:23;76163.81;;;-146.77;58.20
11987;BME280;6053;51.382;6.768;2023-08-21T07:22:53;76029.34;;;-146.77;54.97
11987;BME280;6053;51.382;6.768;2023-08-21T07:25:22;76083.97;;;-146.77;55.05
11987;BME280;6053;51.382;6.768;2023-08-21T07:27:55;76033.56;;;-146.77;53.96
11987;BME280;6053;51.382;6.768;2023-08-21T07:30:27;75974.72;;;-146.77;52.69
11987;BME280;6053;51.382;6.768;2023-08-21T07:32:56;76033.56;;;-146.77;54.98
11987;BME280;6053;51.382;6.768;2023-08-21T07:35:25;75926.41;;;-146.77;51.89
11987;BME280;6053;51.382;6.768;2023-08-21T07:37:57;75983.13;;;-146.77;53.56
11987;BME280;6053;51.382;6.768;2023-08-21T07:40:27;76033.56;;;-146.77;53.77
11987;BME280;6053;51.382;6.768;2023-08-21T07:42:56;75924.31;;;-146.77;53.01
11987;BME280;6053;51.382;6.768;2023-08-21T07:45:26;75920.09;;;-146.77;51.74
11987;BME280;6053;51.382;6.768;2023-08-21T07:47:56;75897.00;;;-146.77;52.59
11987;BME280;6053;51.382;6.768;2023-08-21T07:50:40;76014.66;;;-146.77;53.31
11987;BME280;6053;51.382;6.768;2023-08-21T07:53:12;75987.34;;;-146.77;52.68
11987;BME280;6053;51.382;6.768;2023-08-21T07:55:41;75949.53;;;-146.77;52.92
11987;BME280;6053;51.382;6.768;2023-08-21T07:58:10;75886.50;;;-146.77;52.08
11987;BME280;6053;51.382;6.768;2023-08-21T08:00:39;75901.19;;;-146.77;51.68
11987;BME280;6053;51.382;6.768;2023-08-21T08:03:08;75909.59;;;-146.77;53.31
11987;BME280;6053;51.382;6.768;2023-08-21T08:05:38;75918.00;;;-146.77;53.82
11987;BME280;6053;51.382;6.768;2023-08-21T08:08:22;75907.50;;;-146.77;53.19
11987;BME280;6053;51.382;6.768;2023-08-21T08:10:51;75857.06;;;-146.77;52.00
11987;BME280;6053;51.382;6.768;2023-08-21T08:13:20;75949.53;;;-146.77;53.56
11987;BME280;6053;51.382;6.768;2023-08-21T08:15:50;75915.91;;;-146.77;53.01
11987;BME280;6053;51.382;6.768;2023-08-21T08:18:19;75920.09;;;-146.77;52.05
11987;BME280;6053;51.382;6.768;2023-08-21T08:20:48;75890.69;;;-146.77;52.73
11987;BME280;6053;51.382;6.768;2023-08-21T08:23:17;75875.97;;;-146.77;52.29
11987;BME280;6053;51.382;6.768;2023-08-21T08:25:51;75873.88;;;-146.77;52.67
11987;BME280;6053;51.382;6.768;2023-08-21T08:28:20;75930.59;;;-146.77;52.68
11987;BME280;6053;51.382;6.768;2023-08-21T08:30:53;75920.09;;;-146.77;53.35
11987;BME280;6053;51.382;6.768;2023-08-21T08:33:23;75857.06;;;-146.77;51.26
11987;BME280;6053;51.382;6.768;2023-08-21T08:35:52;75930.59;;;-146.77;51.87
11987;BME280;6053;51.382;6.768;2023-08-21T08:38:24;75867.56;;;-146.77;51.29
11987;BME280;6053;51.382;6.768;2023-08-21T08:40:55;75981.03;;;-146.77;51.60
11987;BME280;6053;51.382;6.768;2023-08-21T08:43:26;75869.69;;;-146.77;52.24
11987;BME280;6053;51.382;6.768;2023-08-21T08:45:58;75911.69;;;-146.77;49.94
11987;BME280;6053;51.382;6.768;2023-08-21T08:48:27;75907.50;;;-146.77;50.09
11987;BME280;6053;51.382;6.768;2023-08-21T08:50:57;75903.28;;;-146.77;50.29
11987;BME280;6053;51.382;6.768;2023-08-21T08:53:28;75785.63;;;-146.77;49.84
11987;BME280;6053;51.382;6.768;2023-08-21T08:55:59;75869.69;;;-146.77;48.39
11987;BME280;6053;51.382;6.768;2023-08-21T08:58:29;75899.09;;;-146.77;50.52
11987;BME280;6053;51.382;6.768;2023-08-21T09:00:59;75888.59;;;-146.77;49.52
11987;BME280;6053;51.382;6.768;2023-08-21T09:03:29;75903.28;;;-146.77;48.94
11987;BME280;6053;51.382;6.768;2023-08-21T09:06:00;75831.88;;;-146.77;48.74
11987;BME280;6053;51.382;6.768;2023-08-21T09:08:30;75871.78;;;-146.77;47.66
11987;BME280;6053;51.382;6.768;2023-08-21T09:11:04;75798.25;;;-146.77;50.37
11987;BME280;6053;51.382;6.768;2023-08-21T09:13:33;75819.25;;;-146.77;47.64
11987;BME280;6053;51.382;6.768;2023-08-21T09:16:03;75829.75;;;-146.77;47.27
11987;BME280;6053;51.382;6.768;2023-08-21T09:18:34;75794.03;;;-146.77;50.11
11987;BME280;6053;51.382;6.768;2023-08-21T09:21:07;75791.94;;;-146.77;49.20
11987;BME280;6053;51.382;6.768;2023-08-21T09:23:36;75926.41;;;-146.77;50.14
11987;BME280;6053;51.382;6.768;2023-08-21T09:26:08;75995.75;;;-146.77;52.69
11987;BME280;6053;51.382;6.768;2023-08-21T09:28:38;75924.31;;;-146.77;50.61
11987;BME280;6053;51.382;6.768;2023-08-21T09:31:07;75880.19;;;-146.77;48.93
11987;BME280;6053;51.382;6.768;2023-08-21T09:33:37;75833.97;;;-146.77;49.67
11987;BME280;6053;51.382;6.768;2023-08-21T09:36:09;75804.56;;;-146.77;48.83
11987;BME280;6053;51.382;6.768;2023-08-21T09:38:45;75796.16;;;-146.77;47.20
11987;BME280;6053;51.382;6.768;2023-08-21T09:41:19;75789.84;;;-146.77;48.97
11987;BME280;6053;51.382;6.768;2023-08-21T09:43:49;75844.47;;;-146.77;50.88
11987;BME280;6053;51.382;6.768;2023-08-21T09:46:24;75857.06;;;-146.77;50.28
11987;BME280;6053;51.382;6.768;2023-08-21T09:48:54;75749.94;;;-146.77;50.28
11987;BME280;6053;51.382;6.768;2023-08-21T09:51:24;75825.56;;;-146.77;50.55
11987;BME280;6053;51.382;6.768;2023-08-21T09:53:56;75789.84;;;-146.77;49.90
11987;BME280;6053;51.382;6.768;2023-08-21T09:56:27;75770.94;;;-146.77;47.54
11987;BME280;6053;51.382;6.768;2023-08-21T09:58:58;75665.88;;;-146.77;45.64
11987;BME280;6053;51.382;6.768;2023-08-21T10:01:30;75789.84;;;-146.77;47.37
11987;BME280;6053;51.382;6.768;2023-08-21T10:04:03;75812.94;;;-146.77;51.10
11987;BME280;6053;51.382;6.768;2023-08-21T10:06:33;75747.81;;;-146.77;47.69
11987;BME280;6053;51.382;6.768;2023-08-21T10:09:06;75747.81;;;-146.77;50.27
11987;BME280;6053;51.382;6.768;2023-08-21T10:11:40;75749.94;;;-146.77;48.24
11987;BME280;6053;51.382;6.768;2023-08-21T10:14:11;75703.72;;;-146.77;50.13
11987;BME280;6053;51.382;6.768;2023-08-21T10:16:42;75775.13;;;-146.77;48.87
11987;BME280;6053;51.382;6.768;2023-08-21T10:19:15;75878.09;;;-146.77;52.70
11987;BME280;6053;51.382;6.768;2023-08-21T10:21:48;75806.66;;;-146.77;50.13
11987;BME280;6053;51.382;6.768;2023-08-21T10:24:28;75808.75;;;-146.77;51.66
11987;BME280;6053;51.382;6.768;2023-08-21T10:27:03;75871.78;;;-146.77;50.98
11987;BME280;6053;51.382;6.768;2023-08-21T10:29:32;75930.59;;;-146.77;55.11
11987;BME280;6053;51.382;6.768;2023-08-21T10:32:03;75892.78;;;-146.77;51.86
11987;BME280;6053;51.382;6.768;2023-08-21T10:34:34;75873.88;;;-146.77;51.92
11987;BME280;6053;51.382;6.768;2023-08-21T10:37:10;75888.59;;;-146.77;51.84
11987;BME280;6053;51.382;6.768;2023-08-21T10:39:54;75850.78;;;-146.77;51.76
11987;BME280;6053;51.382;6.768;2023-08-21T10:42:39;75808.75;;;-146.77;51.61
11987;BME280;6053;51.382;6.768;2023-08-21T10:45:13;75827.66;;;-146.77;49.67
11987;BME280;6053;51.382;6.768;2023-08-21T10:47:42;75865.47;;;-146.77;51.35
11987;BME280;6053;51.382;6.768;2023-08-21T10:50:15;75806.66;;;-146.77;51.37
11987;BME280;6053;51.382;6.768;2023-08-21T10:52:45;75758.34;;;-146.77;48.83
11987;BME280;6053;51.382;6.768;2023-08-21T10:55:16;75718.41;;;-146.77;50.62
11987;BME280;6053;51.382;6.768;2023-08-21T10:57:48;75749.94;;;-146.77;51.25
11987;BME280;6053;51.382;6.768;2023-08-21T11:00:18;75800.34;;;-146.77;49.39
11987;BME280;6053;51.382;6.768;2023-08-21T11:02:49;75810.84;;;-146.77;51.87
11987;BME280;6053;51.382;6.768;2023-08-21T11:05:19;75789.84;;;-146.77;49.79
11987;BME280;6053;51.382;6.768;2023-08-21T11:07:51;75745.72;;;-146.77;49.64
11987;BME280;6053;51.382;6.768;2023-08-21T11:10:23;75735.22;;;-146.77;48.33
11987;BME280;6053;51.382;6.768;2023-08-21T11:12:55;75768.84;;;-146.77;49.94
11987;BME280;6053;51.382;6.768;2023-08-21T11:15:25;75794.03;;;-146.77;49.55
11987;BME280;6053;51.382;6.768;2023-08-21T11:17:55;75743.63;;;-146.77;49.86
11987;BME280;6053;51.382;6.768;2023-08-21T11:20:28;75716.31;;;-146.77;47.85
11987;BME280;6053;51.382;6.768;2023-08-21T11:22:59;75665.88;;;-146.77;46.83
11987;BME280;6053;51.382;6.768;2023-08-21T11:25:32;75686.91;;;-146.77;46.49
11987;BME280;6053;51.382;6.768;2023-08-21T11:28:04;75701.59;;;-146.77;47.67
11987;BME280;6053;51.382;6.768;2023-08-21T11:30:36;75686.91;;;-146.77;49.75
11987;BME280;6053;51.382;6.768;2023-08-21T11:33:07;75804.56;;;-146.77;48.85
11987;BME280;6053;51.382;6.768;2023-08-21T11:35:37;75747.81;;;-146.77;51.70
11987;BME280;6053;51.382;6.768;2023-08-21T11:38:14;75815.06;;;-146.77;50.18
11987;BME280;6053;51.382;6.768;2023-08-21T11:40:50;75752.03;;;-146.77;46.51
11987;BME280;6053;51.382;6.768;2023-08-21T11:43:34;75691.09;;;-146.77;50.06
11987;BME280;6053;51.382;6.768;2023-08-21T11:46:04;75775.13;;;-146.77;48.66
11987;BME280;6053;51.382;6.768;2023-08-21T11:48:38;75804.56;;;-146.77;50.28
11987;BME280;6053;51.382;6.768;2023-08-21T11:51:07;75770.94;;;-146.77;48.98
11987;BME280;6053;51.382;6.768;2023-08-21T11:53:38;75731.03;;;-146.77;48.42
11987;BME280;6053;51.382;6.768;2023-08-21T11:56:12;75781.44;;;-146.77;47.79
11987;BME280;6053;51.382;6.768;2023-08-21T11:58:45;75735.22;;;-146.77;47.74
11987;BME280;6053;51.382;6.768;2023-08-21T12:01:17;75768.84;;;-146.77;49.54
11987;BME280;6053;51.382;6.768;2023-08-21T12:03:47;75762.53;;;-146.77;47.89
11987;BME280;6053;51.382;6.768;2023-08-21T12:06:23;75762.53;;;-146.77;49.71
11987;BME280;6053;51.382;6.768;2023-08-21T12:08:59;75682.69;;;-146.77;51.08
11987;BME280;6053;51.382;6.768;2023-08-21T12:11:29;75789.84;;;-146.77;49.12
11987;BME280;6053;51.382;6.768;2023-08-21T12:13:59;75766.72;;;-146.77;50.51
11987;BME280;6053;51.382;6.768;2023-08-21T12:16:29;75743.63;;;-146.77;47.56
11987;BME280;6053;51.382;6.768;2023-08-21T12:18:58;75670.09;;;-146.77;46.53
11987;BME280;6053;51.382;6.768;2023-08-21T12:21:27;75642.78;;;-146.77;47.04
11987;BME280;6053;51.382;6.768;2023-08-21T12:23:56;75617.56;;;-146.77;45.98
11987;BME280;6053;51.382;6.768;2023-08-21T12:26:25;75630.19;;;-146.77;46.01
11987;BME280;6053;51.382;6.768;2023-08-21T12:29:05;75739.41;;;-146.77;48.54
11987;BME280;6053;51.382;6.768;2023-08-21T12:31:36;75754.13;;;-146.77;50.81
11987;BME280;6053;51.382;6.768;2023-08-21T12:34:06;75699.50;;;-146.77;48.35
11987;BME280;6053;51.382;6.768;2023-08-21T12:36:35;75724.72;;;-146.77;51.41
11987;BME280;6053;51.382;6.768;2023-08-21T12:39:06;75705.81;;;-146.77;47.20
11987;BME280;6053;51.382;6.768;2023-08-21T12:41:36;75705.81;;;-146.77;45.94
11987;BME280;6053;51.382;6.768;2023-08-21T12:44:06;75611.25;;;-146.77;48.85
11987;BME280;6053;51.382;6.768;2023-08-21T12:46:36;75579.75;;;-146.77;47.06
11987;BME280;6053;51.382;6.768;2023-08-21T12:49:05;75598.66;;;-146.77;47.88
11987;BME280;6053;51.382;6.768;2023-08-21T12:51:40;75649.09;;;-146.77;48.59
11987;BME280;6053;51.382;6.768;2023-08-21T12:54:09;75638.56;;;-146.77;48.36
11987;BME280;6053;51.382;6.768;2023-08-21T12:56:38;75613.38;;;-146.77;48.52
11987;BME280;6053;51.382;6.768;2023-08-21T12:59:09;75609.16;;;-146.77;48.21
11987;BME280;6053;51.382;6.768;2023-08-21T13:01:38;75638.56;;;-146.77;50.73
11987;BME280;6053;51.382;6.768;2023-08-21T13:04:07;75699.50;;;-146.77;50.00
11987;BME280;6053;51.382;6.768;2023-08-21T13:06:37;75640.69;;;-146.77;46.58